Terminal Aerodrome Forecast
Issued by NWS Glasgow, MT

Home | Current Version | Previous Version | Text Only | Print | Product List | Glossary On
Versions: 1 2 3 4 5 6 7 8 9 10 11 12 13 14 15 16
599
FTUS45 KGGW 201127
TAFGGW
TAF
KGGW 201127Z 2012/2112 29005KT 4SM BR SCT120
     FM201500 27007KT P6SM SCT120
     FM202000 VRB06KT P6SM SCT100
     FM210500 VRB06KT P6SM BKN090 WS020/26035KT=

USA.gov is the U.S. government's official web portal to all federal, state and local government web resources and services.